sensor_id;sensor_type;location;lat;lon;timestamp;P1;durP1;ratioP1;P2;durP2;ratioP2
6842;SDS011;3460;52.028;8.916;2023-08-06T00:00:37;3.57;;;2.37;;
6842;SDS011;3460;52.028;8.916;2023-08-06T00:03:04;3.40;;;2.80;;
6842;SDS011;3460;52.028;8.916;2023-08-06T00:05:31;3.40;;;2.53;;
6842;SDS011;3460;52.028;8.916;2023-08-06T00:07:58;3.67;;;2.40;;
6842;SDS011;3460;52.028;8.916;2023-08-06T00:10:26;3.13;;;2.60;;
6842;SDS011;3460;52.028;8.916;2023-08-06T00:12:53;3.73;;;2.80;;
6842;SDS011;3460;52.028;8.916;2023-08-06T00:15:20;3.93;;;3.53;;
6842;SDS011;3460;52.028;8.916;2023-08-06T00:17:45;3.77;;;3.13;;
6842;SDS011;3460;52.028;8.916;2023-08-06T00:20:12;3.37;;;2.90;;
6842;SDS011;3460;52.028;8.916;2023-08-06T00:22:39;3.83;;;2.57;;
6842;SDS011;3460;52.028;8.916;2023-08-06T00:25:06;3.20;;;2.90;;
6842;SDS011;3460;52.028;8.916;2023-08-06T00:27:35;4.07;;;2.60;;
6842;SDS011;3460;52.028;8.916;2023-08-06T00:30:02;4.17;;;2.20;;
6842;SDS011;3460;52.028;8.916;2023-08-06T00:32:29;2.50;;;2.10;;
6842;SDS011;3460;52.028;8.916;2023-08-06T00:34:56;2.73;;;2.40;;
6842;SDS011;3460;52.028;8.916;2023-08-06T00:37:23;4.93;;;2.47;;
6842;SDS011;3460;52.028;8.916;2023-08-06T00:39:50;3.70;;;2.70;;
6842;SDS011;3460;52.028;8.916;2023-08-06T00:42:16;3.00;;;2.43;;
6842;SDS011;3460;52.028;8.916;2023-08-06T00:44:47;4.10;;;2.30;;
6842;SDS011;3460;52.028;8.916;2023-08-06T00:47:14;3.90;;;3.00;;
6842;SDS011;3460;52.028;8.916;2023-08-06T00:49:41;2.70;;;2.50;;
6842;SDS011;3460;52.028;8.916;2023-08-06T00:52:08;2.70;;;2.50;;
6842;SDS011;3460;52.028;8.916;2023-08-06T00:54:35;2.77;;;2.40;;
6842;SDS011;3460;52.028;8.916;2023-08-06T00:57:03;2.67;;;2.13;;
6842;SDS011;3460;52.028;8.916;2023-08-06T00:59:30;3.00;;;2.47;;
6842;SDS011;3460;52.028;8.916;2023-08-06T01:01:59;4.63;;;2.50;;
6842;SDS011;3460;52.028;8.916;2023-08-06T01:04:26;4.23;;;2.57;;
6842;SDS011;3460;52.028;8.916;2023-08-06T01:06:55;2.97;;;2.37;;
6842;SDS011;3460;52.028;8.916;2023-08-06T01:09:32;2.73;;;2.30;;
6842;SDS011;3460;52.028;8.916;2023-08-06T01:12:07;3.60;;;2.47;;
6842;SDS011;3460;52.028;8.916;2023-08-06T01:14:45;4.17;;;2.70;;
6842;SDS011;3460;52.028;8.916;2023-08-06T01:17:18;3.90;;;2.50;;
6842;SDS011;3460;52.028;8.916;2023-08-06T01:19:46;4.17;;;2.77;;
6842;SDS011;3460;52.028;8.916;2023-08-06T01:22:14;3.17;;;2.40;;
6842;SDS011;3460;52.028;8.916;2023-08-06T01:24:41;5.10;;;2.70;;
6842;SDS011;3460;52.028;8.916;2023-08-06T01:27:14;4.20;;;2.50;;
6842;SDS011;3460;52.028;8.916;2023-08-06T01:29:49;3.13;;;2.40;;
6842;SDS011;3460;52.028;8.916;2023-08-06T01:32:21;3.03;;;2.73;;
6842;SDS011;3460;52.028;8.916;2023-08-06T01:34:48;3.40;;;2.70;;
6842;SDS011;3460;52.028;8.916;2023-08-06T01:37:17;5.73;;;2.90;;
6842;SDS011;3460;52.028;8.916;2023-08-06T01:39:44;4.57;;;2.93;;
6842;SDS011;3460;52.028;8.916;2023-08-06T01:42:11;3.53;;;2.97;;
6842;SDS011;3460;52.028;8.916;2023-08-06T01:44:38;4.47;;;2.70;;
6842;SDS011;3460;52.028;8.916;2023-08-06T01:47:05;3.87;;;2.73;;
6842;SDS011;3460;52.028;8.916;2023-08-06T01:49:32;3.13;;;2.80;;
6842;SDS011;3460;52.028;8.916;2023-08-06T01:51:59;3.20;;;2.60;;
6842;SDS011;3460;52.028;8.916;2023-08-06T01:54:27;3.10;;;2.30;;
6842;SDS011;3460;52.028;8.916;2023-08-06T01:56:54;5.10;;;2.70;;
6842;SDS011;3460;52.028;8.916;2023-08-06T01:59:21;5.00;;;2.87;;
6842;SDS011;3460;52.028;8.916;2023-08-06T02:01:47;8.23;;;3.20;;
6842;SDS011;3460;52.028;8.916;2023-08-06T02:04:14;3.00;;;2.70;;
6842;SDS011;3460;52.028;8.916;2023-08-06T02:06:41;5.30;;;2.70;;
6842;SDS011;3460;52.028;8.916;2023-08-06T02:09:08;4.40;;;2.53;;
6842;SDS011;3460;52.028;8.916;2023-08-06T02:11:36;3.03;;;2.50;;
6842;SDS011;3460;52.028;8.916;2023-08-06T02:14:03;4.20;;;2.53;;
6842;SDS011;3460;52.028;8.916;2023-08-06T02:16:29;3.73;;;2.60;;
6842;SDS011;3460;52.028;8.916;2023-08-06T02:18:56;3.90;;;2.93;;
6842;SDS011;3460;52.028;8.916;2023-08-06T02:21:23;6.57;;;3.10;;
6842;SDS011;3460;52.028;8.916;2023-08-06T02:23:50;3.20;;;2.90;;
6842;SDS011;3460;52.028;8.916;2023-08-06T02:26:16;2.70;;;2.50;;
6842;SDS011;3460;52.028;8.916;2023-08-06T02:28:44;4.50;;;2.60;;
6842;SDS011;3460;52.028;8.916;2023-08-06T02:31:11;4.67;;;2.80;;
6842;SDS011;3460;52.028;8.916;2023-08-06T02:33:38;5.47;;;2.87;;
6842;SDS011;3460;52.028;8.916;2023-08-06T02:36:05;3.53;;;2.80;;
6842;SDS011;3460;52.028;8.916;2023-08-06T02:38:32;3.83;;;2.90;;
6842;SDS011;3460;52.028;8.916;2023-08-06T02:40:58;4.93;;;2.53;;
6842;SDS011;3460;52.028;8.916;2023-08-06T02:43:27;3.73;;;2.30;;
6842;SDS011;3460;52.028;8.916;2023-08-06T02:45:57;9.43;;;4.03;;
6842;SDS011;3460;52.028;8.916;2023-08-06T02:48:24;4.30;;;2.70;;
6842;SDS011;3460;52.028;8.916;2023-08-06T02:50:51;3.37;;;2.87;;
6842;SDS011;3460;52.028;8.916;2023-08-06T02:53:18;3.63;;;2.53;;
6842;SDS011;3460;52.028;8.916;2023-08-06T02:55:45;3.07;;;2.53;;
6842;SDS011;3460;52.028;8.916;2023-08-06T02:58:13;4.87;;;2.90;;
6842;SDS011;3460;52.028;8.916;2023-08-06T03:00:41;4.13;;;2.70;;
6842;SDS011;3460;52.028;8.916;2023-08-06T03:03:09;4.57;;;2.80;;
6842;SDS011;3460;52.028;8.916;2023-08-06T03:05:36;2.57;;;2.37;;
6842;SDS011;3460;52.028;8.916;2023-08-06T03:08:03;4.37;;;2.67;;
6842;SDS011;3460;52.028;8.916;2023-08-06T03:10:30;3.30;;;2.97;;
6842;SDS011;3460;52.028;8.916;2023-08-06T03:12:57;4.20;;;2.93;;
6842;SDS011;3460;52.028;8.916;2023-08-06T03:15:23;7.20;;;3.10;;
6842;SDS011;3460;52.028;8.916;2023-08-06T03:17:50;4.83;;;2.93;;
6842;SDS011;3460;52.028;8.916;2023-08-06T03:20:18;3.43;;;2.53;;
6842;SDS011;3460;52.028;8.916;2023-08-06T03:22:45;4.47;;;2.60;;
6842;SDS011;3460;52.028;8.916;2023-08-06T03:25:12;5.17;;;2.73;;
6842;SDS011;3460;52.028;8.916;2023-08-06T03:27:39;4.60;;;2.90;;
6842;SDS011;3460;52.028;8.916;2023-08-06T03:30:06;4.13;;;3.20;;
6842;SDS011;3460;52.028;8.916;2023-08-06T03:32:34;5.83;;;2.80;;
6842;SDS011;3460;52.028;8.916;2023-08-06T03:35:00;7.27;;;2.70;;
6842;SDS011;3460;52.028;8.916;2023-08-06T03:37:28;5.20;;;2.70;;
6842;SDS011;3460;52.028;8.916;2023-08-06T03:39:55;4.90;;;3.00;;
6842;SDS011;3460;52.028;8.916;2023-08-06T03:42:22;3.20;;;2.47;;
6842;SDS011;3460;52.028;8.916;2023-08-06T03:44:49;6.30;;;2.80;;
6842;SDS011;3460;52.028;8.916;2023-08-06T03:47:16;4.20;;;2.30;;
6842;SDS011;3460;52.028;8.916;2023-08-06T03:49:42;2.90;;;2.37;;
6842;SDS011;3460;52.028;8.916;2023-08-06T03:52:09;4.23;;;2.70;;
6842;SDS011;3460;52.028;8.916;2023-08-06T03:54:37;2.90;;;2.50;;
6842;SDS011;3460;52.028;8.916;2023-08-06T03:57:04;4.83;;;2.57;;
6842;SDS011;3460;52.028;8.916;2023-08-06T03:59:31;3.57;;;2.60;;
6842;SDS011;3460;52.028;8.916;2023-08-06T04:01:58;3.77;;;2.70;;
6842;SDS011;3460;52.028;8.916;2023-08-06T04:04:25;5.50;;;2.90;;
6842;SDS011;3460;52.028;8.916;2023-08-06T04:06:52;6.13;;;2.70;;
6842;SDS011;3460;52.028;8.916;2023-08-06T04:09:19;3.53;;;2.50;;
6842;SDS011;3460;52.028;8.916;2023-08-06T04:11:47;5.63;;;2.90;;
6842;SDS011;3460;52.028;8.916;2023-08-06T04:14:14;4.50;;;3.50;;
6842;SDS011;3460;52.028;8.916;2023-08-06T04:16:40;2.97;;;2.60;;
6842;SDS011;3460;52.028;8.916;2023-08-06T04:19:07;5.97;;;3.10;;
6842;SDS011;3460;52.028;8.916;2023-08-06T04:21:34;3.33;;;2.90;;
6842;SDS011;3460;52.028;8.916;2023-08-06T04:24:01;6.20;;;3.30;;
6842;SDS011;3460;52.028;8.916;2023-08-06T04:26:28;3.70;;;3.27;;
6842;SDS011;3460;52.028;8.916;2023-08-06T04:28:56;5.13;;;3.00;;
6842;SDS011;3460;52.028;8.916;2023-08-06T04:31:23;3.57;;;2.83;;
6842;SDS011;3460;52.028;8.916;2023-08-06T04:33:50;6.47;;;2.73;;
6842;SDS011;3460;52.028;8.916;2023-08-06T04:36:16;8.40;;;2.97;;
6842;SDS011;3460;52.028;8.916;2023-08-06T04:38:43;3.57;;;2.80;;
6842;SDS011;3460;52.028;8.916;2023-08-06T04:41:12;3.63;;;2.90;;
6842;SDS011;3460;52.028;8.916;2023-08-06T04:43:39;4.13;;;2.70;;
6842;SDS011;3460;52.028;8.916;2023-08-06T04:46:07;4.30;;;2.90;;
6842;SDS011;3460;52.028;8.916;2023-08-06T04:48:34;4.17;;;2.93;;
6842;SDS011;3460;52.028;8.916;2023-08-06T04:51:00;5.60;;;3.20;;
6842;SDS011;3460;52.028;8.916;2023-08-06T04:53:27;3.43;;;2.67;;
6842;SDS011;3460;52.028;8.916;2023-08-06T04:55:54;4.80;;;3.00;;
6842;SDS011;3460;52.028;8.916;2023-08-06T04:58:21;4.17;;;2.80;;
6842;SDS011;3460;52.028;8.916;2023-08-06T05:00:48;3.80;;;2.73;;
6842;SDS011;3460;52.028;8.916;2023-08-06T05:03:16;3.47;;;2.90;;
6842;SDS011;3460;52.028;8.916;2023-08-06T05:05:43;4.47;;;2.60;;
6842;SDS011;3460;52.028;8.916;2023-08-06T05:08:13;3.40;;;3.00;;
6842;SDS011;3460;52.028;8.916;2023-08-06T05:10:42;5.20;;;3.93;;
6842;SDS011;3460;52.028;8.916;2023-08-06T05:13:09;4.10;;;3.07;;
6842;SDS011;3460;52.028;8.916;2023-08-06T05:15:36;5.37;;;3.20;;
6842;SDS011;3460;52.028;8.916;2023-08-06T05:18:04;3.23;;;2.93;;
6842;SDS011;3460;52.028;8.916;2023-08-06T05:20:33;2.87;;;2.60;;
6842;SDS011;3460;52.028;8.916;2023-08-06T05:23:03;3.63;;;3.00;;
6842;SDS011;3460;52.028;8.916;2023-08-06T05:25:30;4.37;;;3.10;;
6842;SDS011;3460;52.028;8.916;2023-08-06T05:27:57;3.57;;;2.40;;
6842;SDS011;3460;52.028;8.916;2023-08-06T05:30:24;4.47;;;2.77;;
6842;SDS011;3460;52.028;8.916;2023-08-06T05:32:50;3.07;;;2.63;;
6842;SDS011;3460;52.028;8.916;2023-08-06T05:35:17;3.23;;;2.67;;
6842;SDS011;3460;52.028;8.916;2023-08-06T05:37:45;5.20;;;2.43;;
6842;SDS011;3460;52.028;8.916;2023-08-06T05:40:12;3.93;;;2.60;;
6842;SDS011;3460;52.028;8.916;2023-08-06T05:42:39;5.43;;;2.70;;
6842;SDS011;3460;52.028;8.916;2023-08-06T05:45:07;4.10;;;2.43;;
6842;SDS011;3460;52.028;8.916;2023-08-06T05:47:34;4.27;;;2.53;;
6842;SDS011;3460;52.028;8.916;2023-08-06T05:50:01;4.47;;;2.60;;
6842;SDS011;3460;52.028;8.916;2023-08-06T05:52:28;6.17;;;2.63;;
6842;SDS011;3460;52.028;8.916;2023-08-06T05:54:56;3.00;;;2.53;;
6842;SDS011;3460;52.028;8.916;2023-08-06T05:57:23;6.37;;;2.77;;
6842;SDS011;3460;52.028;8.916;2023-08-06T05:59:50;3.10;;;2.60;;
6842;SDS011;3460;52.028;8.916;2023-08-06T06:02:17;3.00;;;2.73;;
6842;SDS011;3460;52.028;8.916;2023-08-06T06:04:44;3.63;;;2.57;;
6842;SDS011;3460;52.028;8.916;2023-08-06T06:07:10;2.80;;;2.30;;
6842;SDS011;3460;52.028;8.916;2023-08-06T06:09:37;3.00;;;2.53;;
6842;SDS011;3460;52.028;8.916;2023-08-06T06:12:07;3.17;;;2.33;;
6842;SDS011;3460;52.028;8.916;2023-08-06T06:14:33;4.27;;;2.33;;
6842;SDS011;3460;52.028;8.916;2023-08-06T06:17:00;3.10;;;2.80;;
6842;SDS011;3460;52.028;8.916;2023-08-06T06:19:27;5.30;;;2.47;;
6842;SDS011;3460;52.028;8.916;2023-08-06T06:21:54;3.60;;;2.60;;
6842;SDS011;3460;52.028;8.916;2023-08-06T06:24:22;4.20;;;2.60;;
6842;SDS011;3460;52.028;8.916;2023-08-06T06:26:49;3.20;;;2.30;;
6842;SDS011;3460;52.028;8.916;2023-08-06T06:29:17;3.10;;;2.80;;
6842;SDS011;3460;52.028;8.916;2023-08-06T06:31:44;7.00;;;3.00;;
6842;SDS011;3460;52.028;8.916;2023-08-06T06:34:11;3.57;;;2.70;;
6842;SDS011;3460;52.028;8.916;2023-08-06T06:36:38;5.57;;;2.43;;
6842;SDS011;3460;52.028;8.916;2023-08-06T06:39:05;4.20;;;2.40;;
6842;SDS011;3460;52.028;8.916;2023-08-06T06:41:33;2.67;;;2.47;;
6842;SDS011;3460;52.028;8.916;2023-08-06T06:44:00;5.87;;;2.80;;
6842;SDS011;3460;52.028;8.916;2023-08-06T06:46:28;2.53;;;2.20;;
6842;SDS011;3460;52.028;8.916;2023-08-06T06:48:55;3.57;;;2.70;;
6842;SDS011;3460;52.028;8.916;2023-08-06T06:51:21;3.40;;;3.10;;
6842;SDS011;3460;52.028;8.916;2023-08-06T06:53:48;3.40;;;2.63;;
6842;SDS011;3460;52.028;8.916;2023-08-06T06:56:15;3.20;;;2.60;;
6842;SDS011;3460;52.028;8.916;2023-08-06T06:58:42;3.67;;;2.87;;
6842;SDS011;3460;52.028;8.916;2023-08-06T07:01:09;3.80;;;3.33;;
6842;SDS011;3460;52.028;8.916;2023-08-06T07:03:38;3.80;;;3.17;;
6842;SDS011;3460;52.028;8.916;2023-08-06T07:06:05;3.23;;;2.40;;
6842;SDS011;3460;52.028;8.916;2023-08-06T07:08:32;2.60;;;2.40;;
6842;SDS011;3460;52.028;8.916;2023-08-06T07:10:59;3.20;;;2.40;;
6842;SDS011;3460;52.028;8.916;2023-08-06T07:13:27;3.20;;;2.73;;
6842;SDS011;3460;52.028;8.916;2023-08-06T07:15:54;4.67;;;2.37;;
6842;SDS011;3460;52.028;8.916;2023-08-06T07:18:21;5.43;;;2.93;;
6842;SDS011;3460;52.028;8.916;2023-08-06T07:20:49;4.90;;;2.53;;
6842;SDS011;3460;52.028;8.916;2023-08-06T07:23:16;4.67;;;3.23;;
6842;SDS011;3460;52.028;8.916;2023-08-06T07:25:44;4.83;;;3.73;;
6842;SDS011;3460;52.028;8.916;2023-08-06T07:28:12;6.40;;;2.90;;
6842;SDS011;3460;52.028;8.916;2023-08-06T07:30:39;4.40;;;2.80;;
6842;SDS011;3460;52.028;8.916;2023-08-06T07:33:06;3.73;;;2.60;;
6842;SDS011;3460;52.028;8.916;2023-08-06T07:35:33;3.70;;;2.67;;
6842;SDS011;3460;52.028;8.916;2023-08-06T07:38:02;3.40;;;3.00;;
6842;SDS011;3460;52.028;8.916;2023-08-06T07:40:29;5.57;;;3.47;;
6842;SDS011;3460;52.028;8.916;2023-08-06T07:42:55;3.10;;;2.70;;
6842;SDS011;3460;52.028;8.916;2023-08-06T07:45:22;4.50;;;2.80;;
6842;SDS011;3460;52.028;8.916;2023-08-06T07:47:51;5.13;;;2.80;;
6842;SDS011;3460;52.028;8.916;2023-08-06T07:50:18;3.40;;;2.53;;
6842;SDS011;3460;52.028;8.916;2023-08-06T07:52:45;3.53;;;2.73;;
6842;SDS011;3460;52.028;8.916;2023-08-06T07:55:13;2.73;;;2.00;;
6842;SDS011;3460;52.028;8.916;2023-08-06T07:57:40;2.47;;;2.27;;
6842;SDS011;3460;52.028;8.916;2023-08-06T08:00:07;2.97;;;2.40;;
6842;SDS011;3460;52.028;8.916;2023-08-06T08:02:36;3.87;;;2.47;;
6842;SDS011;3460;52.028;8.916;2023-08-06T08:05:04;3.43;;;2.20;;
6842;SDS011;3460;52.028;8.916;2023-08-06T08:07:32;4.23;;;2.50;;
6842;SDS011;3460;52.028;8.916;2023-08-06T08:09:59;4.03;;;2.20;;
6842;SDS011;3460;52.028;8.916;2023-08-06T08:12:27;4.47;;;2.53;;
6842;SDS011;3460;52.028;8.916;2023-08-06T08:14:54;4.40;;;2.00;;
6842;SDS011;3460;52.028;8.916;2023-08-06T08:17:21;3.43;;;2.30;;
6842;SDS011;3460;52.028;8.916;2023-08-06T08:19:47;3.83;;;2.20;;
6842;SDS011;3460;52.028;8.916;2023-08-06T08:22:14;2.70;;;2.20;;
6842;SDS011;3460;52.028;8.916;2023-08-06T08:24:41;3.33;;;2.13;;
6842;SDS011;3460;52.028;8.916;2023-08-06T08:27:08;5.03;;;2.17;;
6842;SDS011;3460;52.028;8.916;2023-08-06T08:29:36;4.13;;;2.30;;
6842;SDS011;3460;52.028;8.916;2023-08-06T08:32:03;2.50;;;2.30;;
6842;SDS011;3460;52.028;8.916;2023-08-06T08:34:31;2.90;;;1.97;;
6842;SDS011;3460;52.028;8.916;2023-08-06T08:36:58;2.50;;;2.20;;
6842;SDS011;3460;52.028;8.916;2023-08-06T08:39:24;4.13;;;2.57;;
6842;SDS011;3460;52.028;8.916;2023-08-06T08:41:51;3.10;;;2.30;;
6842;SDS011;3460;52.028;8.916;2023-08-06T08:44:18;3.47;;;2.70;;
6842;SDS011;3460;52.028;8.916;2023-08-06T08:46:47;2.93;;;2.20;;
6842;SDS011;3460;52.028;8.916;2023-08-06T08:49:14;2.77;;;2.07;;
6842;SDS011;3460;52.028;8.916;2023-08-06T08:51:41;4.03;;;2.83;;
6842;SDS011;3460;52.028;8.916;2023-08-06T08:54:10;3.67;;;2.30;;
6842;SDS011;3460;52.028;8.916;2023-08-06T08:56:39;2.50;;;2.30;;
6842;SDS011;3460;52.028;8.916;2023-08-06T08:59:06;3.23;;;2.03;;
6842;SDS011;3460;52.028;8.916;2023-08-06T09:01:33;2.57;;;2.00;;
6842;SDS011;3460;52.028;8.916;2023-08-06T09:04:02;2.90;;;1.97;;
6842;SDS011;3460;52.028;8.916;2023-08-06T09:06:31;3.60;;;2.03;;
6842;SDS011;3460;52.028;8.916;2023-08-06T09:09:02;3.20;;;2.10;;
6842;SDS011;3460;52.028;8.916;2023-08-06T09:11:32;4.03;;;2.20;;
6842;SDS011;3460;52.028;8.916;2023-08-06T09:14:06;3.20;;;2.00;;
6842;SDS011;3460;52.028;8.916;2023-08-06T09:16:33;4.47;;;1.80;;
6842;SDS011;3460;52.028;8.916;2023-08-06T09:19:07;3.07;;;1.70;;
6842;SDS011;3460;52.028;8.916;2023-08-06T09:21:36;3.40;;;1.83;;
6842;SDS011;3460;52.028;8.916;2023-08-06T09:24:06;2.30;;;1.93;;
6842;SDS011;3460;52.028;8.916;2023-08-06T09:26:35;3.03;;;1.90;;
6842;SDS011;3460;52.028;8.916;2023-08-06T09:29:04;1.73;;;1.57;;
6842;SDS011;3460;52.028;8.916;2023-08-06T09:31:38;2.40;;;1.77;;
6842;SDS011;3460;52.028;8.916;2023-08-06T09:34:11;2.03;;;1.83;;
6842;SDS011;3460;52.028;8.916;2023-08-06T09:36:41;2.57;;;1.80;;
6842;SDS011;3460;52.028;8.916;2023-08-06T09:39:14;2.80;;;1.90;;
6842;SDS011;3460;52.028;8.916;2023-08-06T09:41:42;2.77;;;1.70;;
6842;SDS011;3460;52.028;8.916;2023-08-06T09:44:14;3.07;;;1.80;;
6842;SDS011;3460;52.028;8.916;2023-08-06T09:46:43;2.03;;;1.70;;
6842;SDS011;3460;52.028;8.916;2023-08-06T09:49:14;3.37;;;1.87;;
6842;SDS011;3460;52.028;8.916;2023-08-06T09:51:41;2.57;;;1.90;;
6842;SDS011;3460;52.028;8.916;2023-08-06T09:54:09;2.13;;;1.83;;
6842;SDS011;3460;52.028;8.916;2023-08-06T09:56:38;2.67;;;1.80;;
6842;SDS011;3460;52.028;8.916;2023-08-06T09:59:06;1.87;;;1.63;;
6842;SDS011;3460;52.028;8.916;2023-08-06T10:01:33;2.47;;;1.70;;
6842;SDS011;3460;52.028;8.916;2023-08-06T10:04:01;5.30;;;1.97;;
6842;SDS011;3460;52.028;8.916;2023-08-06T10:06:31;2.40;;;1.60;;
6842;SDS011;3460;52.028;8.916;2023-08-06T10:09:01;2.40;;;1.57;;
6842;SDS011;3460;52.028;8.916;2023-08-06T10:11:28;1.93;;;1.67;;
6842;SDS011;3460;52.028;8.916;2023-08-06T10:13:57;2.40;;;1.67;;
6842;SDS011;3460;52.028;8.916;2023-08-06T10:16:28;3.73;;;1.80;;
6842;SDS011;3460;52.028;8.916;2023-08-06T10:18:56;1.93;;;1.50;;
6842;SDS011;3460;52.028;8.916;2023-08-06T10:21:24;1.80;;;1.50;;
6842;SDS011;3460;52.028;8.916;2023-08-06T10:23:54;2.37;;;1.90;;
6842;SDS011;3460;52.028;8.916;2023-08-06T10:26:24;2.57;;;1.80;;
6842;SDS011;3460;52.028;8.916;2023-08-06T10:28:52;1.70;;;1.57;;
6842;SDS011;3460;52.028;8.916;2023-08-06T10:31:18;2.33;;;1.70;;
6842;SDS011;3460;52.028;8.916;2023-08-06T10:33:46;2.40;;;1.65;;
6842;SDS011;3460;52.028;8.916;2023-08-06T10:36:14;2.28;;;1.65;;
6842;SDS011;3460;52.028;8.916;2023-08-06T10:38:44;7.57;;;2.40;;
6842;SDS011;3460;52.028;8.916;2023-08-06T10:41:18;2.60;;;2.30;;
6842;SDS011;3460;52.028;8.916;2023-08-06T10:43:49;2.40;;;2.20;;
6842;SDS011;3460;52.028;8.916;2023-08-06T10:46:23;2.53;;;2.13;;
6842;SDS011;3460;52.028;8.916;2023-08-06T10:48:53;2.65;;;2.22;;
6842;SDS011;3460;52.028;8.916;2023-08-06T10:51:20;3.80;;;2.42;;
6842;SDS011;3460;52.028;8.916;2023-08-06T10:53:47;6.93;;;4.22;;
6842;SDS011;3460;52.028;8.916;2023-08-06T10:56:17;4.00;;;2.95;;
6842;SDS011;3460;52.028;8.916;2023-08-06T10:58:45;3.05;;;2.58;;
6842;SDS011;3460;52.028;8.916;2023-08-06T11:01:13;3.55;;;3.10;;
6842;SDS011;3460;52.028;8.916;2023-08-06T11:03:41;2.63;;;2.00;;
6842;SDS011;3460;52.028;8.916;2023-08-06T11:06:08;3.25;;;2.20;;
6842;SDS011;3460;52.028;8.916;2023-08-06T11:08:36;2.38;;;1.80;;
6842;SDS011;3460;52.028;8.916;2023-08-06T11:11:09;3.03;;;2.42;;
6842;SDS011;3460;52.028;8.916;2023-08-06T11:13:39;2.47;;;2.10;;
6842;SDS011;3460;52.028;8.916;2023-08-06T11:16:06;2.42;;;1.90;;
6842;SDS011;3460;52.028;8.916;2023-08-06T11:18:33;3.42;;;2.15;;
6842;SDS011;3460;52.028;8.916;2023-08-06T11:21:00;2.28;;;1.83;;
6842;SDS011;3460;52.028;8.916;2023-08-06T11:23:28;1.98;;;1.60;;
6842;SDS011;3460;52.028;8.916;2023-08-06T11:25:55;2.20;;;2.00;;
6842;SDS011;3460;52.028;8.916;2023-08-06T11:28:23;3.85;;;1.90;;
6842;SDS011;3460;52.028;8.916;2023-08-06T11:30:51;2.67;;;2.43;;
6842;SDS011;3460;52.028;8.916;2023-08-06T11:33:20;2.83;;;2.60;;
6842;SDS011;3460;52.028;8.916;2023-08-06T11:35:47;3.30;;;1.77;;
6842;SDS011;3460;52.028;8.916;2023-08-06T11:38:14;2.37;;;1.70;;
6842;SDS011;3460;52.028;8.916;2023-08-06T11:40:43;2.63;;;2.27;;
6842;SDS011;3460;52.028;8.916;2023-08-06T11:43:10;2.27;;;1.73;;
6842;SDS011;3460;52.028;8.916;2023-08-06T11:45:37;3.43;;;1.90;;
6842;SDS011;3460;52.028;8.916;2023-08-06T11:48:06;2.10;;;1.90;;
6842;SDS011;3460;52.028;8.916;2023-08-06T11:50:36;2.50;;;2.27;;
6842;SDS011;3460;52.028;8.916;2023-08-06T11:53:03;2.57;;;1.87;;
6842;SDS011;3460;52.028;8.916;2023-08-06T11:55:31;3.07;;;2.10;;
6842;SDS011;3460;52.028;8.916;2023-08-06T11:57:59;2.73;;;2.10;;
6842;SDS011;3460;52.028;8.916;2023-08-06T12:00:29;2.87;;;2.30;;
6842;SDS011;3460;52.028;8.916;2023-08-06T12:02:56;3.17;;;2.37;;
6842;SDS011;3460;52.028;8.916;2023-08-06T12:05:28;3.23;;;2.00;;
6842;SDS011;3460;52.028;8.916;2023-08-06T12:07:59;3.83;;;2.03;;
6842;SDS011;3460;52.028;8.916;2023-08-06T12:10:26;3.53;;;2.20;;
6842;SDS011;3460;52.028;8.916;2023-08-06T12:12:54;2.73;;;2.27;;
6842;SDS011;3460;52.028;8.916;2023-08-06T12:15:21;3.40;;;1.90;;
6842;SDS011;3460;52.028;8.916;2023-08-06T12:17:49;2.20;;;2.00;;
6842;SDS011;3460;52.028;8.916;2023-08-06T12:20:16;2.90;;;1.90;;
6842;SDS011;3460;52.028;8.916;2023-08-06T12:22:44;3.73;;;2.10;;
6842;SDS011;3460;52.028;8.916;2023-08-06T12:25:11;2.00;;;1.80;;
6842;SDS011;3460;52.028;8.916;2023-08-06T12:27:39;1.93;;;1.63;;
6842;SDS011;3460;52.028;8.916;2023-08-06T12:30:07;1.67;;;1.57;;
6842;SDS011;3460;52.028;8.916;2023-08-06T12:32:35;2.70;;;1.80;;
6842;SDS011;3460;52.028;8.916;2023-08-06T12:35:02;5.73;;;1.87;;
6842;SDS011;3460;52.028;8.916;2023-08-06T12:37:29;2.93;;;2.00;;
6842;SDS011;3460;52.028;8.916;2023-08-06T12:39:58;2.10;;;1.90;;
6842;SDS011;3460;52.028;8.916;2023-08-06T12:42:24;3.37;;;2.10;;
6842;SDS011;3460;52.028;8.916;2023-08-06T12:44:51;3.50;;;1.93;;
6842;SDS011;3460;52.028;8.916;2023-08-06T12:47:18;3.20;;;2.33;;
6842;SDS011;3460;52.028;8.916;2023-08-06T12:49:45;2.95;;;2.05;;
6842;SDS011;3460;52.028;8.916;2023-08-06T12:52:12;2.97;;;2.28;;
6842;SDS011;3460;52.028;8.916;2023-08-06T12:54:40;3.10;;;2.28;;
6842;SDS011;3460;52.028;8.916;2023-08-06T12:57:08;3.55;;;3.25;;
6842;SDS011;3460;52.028;8.916;2023-08-06T12:59:35;2.90;;;2.60;;
6842;SDS011;3460;52.028;8.916;2023-08-06T13:02:02;11.43;;;6.32;;
6842;SDS011;3460;52.028;8.916;2023-08-06T13:04:29;3.45;;;2.40;;
6842;SDS011;3460;52.028;8.916;2023-08-06T13:06:56;3.97;;;3.67;;
6842;SDS011;3460;52.028;8.916;2023-08-06T13:09:23;3.25;;;2.95;;
6842;SDS011;3460;52.028;8.916;2023-08-06T13:11:51;3.58;;;3.28;;
6842;SDS011;3460;52.028;8.916;2023-08-06T13:14:19;4.78;;;2.70;;
6842;SDS011;3460;52.028;8.916;2023-08-06T13:16:46;5.18;;;4.65;;
6842;SDS011;3460;52.028;8.916;2023-08-06T13:19:13;7.13;;;4.78;;
6842;SDS011;3460;52.028;8.916;2023-08-06T13:21:58;5.07;;;4.00;;
6842;SDS011;3460;52.028;8.916;2023-08-06T13:24:30;2.80;;;2.55;;
6842;SDS011;3460;52.028;8.916;2023-08-06T13:26:57;4.88;;;4.40;;
6842;SDS011;3460;52.028;8.916;2023-08-06T13:29:26;15.52;;;9.93;;
6842;SDS011;3460;52.028;8.916;2023-08-06T13:31:53;9.50;;;6.70;;
6842;SDS011;3460;52.028;8.916;2023-08-06T13:34:19;8.48;;;4.78;;
6842;SDS011;3460;52.028;8.916;2023-08-06T13:36:46;4.63;;;4.18;;
6842;SDS011;3460;52.028;8.916;2023-08-06T13:39:13;3.58;;;3.28;;
6842;SDS011;3460;52.028;8.916;2023-08-06T13:41:42;7.45;;;5.68;;
6842;SDS011;3460;52.028;8.916;2023-08-06T13:44:09;5.30;;;4.80;;
6842;SDS011;3460;52.028;8.916;2023-08-06T13:46:40;5.38;;;4.63;;
6842;SDS011;3460;52.028;8.916;2023-08-06T13:49:07;6.38;;;5.53;;
6842;SDS011;3460;52.028;8.916;2023-08-06T13:51:34;3.28;;;2.97;;
6842;SDS011;3460;52.028;8.916;2023-08-06T13:54:01;5.18;;;4.68;;
6842;SDS011;3460;52.028;8.916;2023-08-06T13:56:28;5.82;;;4.47;;
6842;SDS011;3460;52.028;8.916;2023-08-06T13:58:55;6.88;;;5.15;;
6842;SDS011;3460;52.028;8.916;2023-08-06T14:01:22;6.20;;;5.50;;
6842;SDS011;3460;52.028;8.916;2023-08-06T14:03:50;8.57;;;6.88;;
6842;SDS011;3460;52.028;8.916;2023-08-06T14:06:18;7.57;;;6.82;;
6842;SDS011;3460;52.028;8.916;2023-08-06T14:08:45;4.57;;;4.07;;
6842;SDS011;3460;52.028;8.916;2023-08-06T14:11:12;9.50;;;8.43;;
6842;SDS011;3460;52.028;8.916;2023-08-06T14:13:39;11.07;;;9.98;;
6842;SDS011;3460;52.028;8.916;2023-08-06T14:16:06;8.02;;;6.80;;
6842;SDS011;3460;52.028;8.916;2023-08-06T14:18:33;7.45;;;6.20;;
6842;SDS011;3460;52.028;8.916;2023-08-06T14:21:04;5.43;;;4.53;;
6842;SDS011;3460;52.028;8.916;2023-08-06T14:23:31;4.13;;;3.72;;
6842;SDS011;3460;52.028;8.916;2023-08-06T14:25:57;5.03;;;4.53;;
6842;SDS011;3460;52.028;8.916;2023-08-06T14:28:24;3.35;;;3.05;;
6842;SDS011;3460;52.028;8.916;2023-08-06T14:30:51;3.45;;;3.15;;
6842;SDS011;3460;52.028;8.916;2023-08-06T14:33:18;3.80;;;3.40;;
6842;SDS011;3460;52.028;8.916;2023-08-06T14:35:45;4.32;;;3.92;;
6842;SDS011;3460;52.028;8.916;2023-08-06T14:38:13;3.40;;;3.10;;
6842;SDS011;3460;52.028;8.916;2023-08-06T14:40:40;4.32;;;3.92;;
6842;SDS011;3460;52.028;8.916;2023-08-06T14:43:06;3.78;;;3.45;;
6842;SDS011;3460;52.028;8.916;2023-08-06T14:45:35;3.78;;;3.33;;
6842;SDS011;3460;52.028;8.916;2023-08-06T14:48:04;5.00;;;3.45;;
6842;SDS011;3460;52.028;8.916;2023-08-06T14:50:30;4.50;;;3.95;;
6842;SDS011;3460;52.028;8.916;2023-08-06T14:52:57;3.77;;;3.23;;
6842;SDS011;3460;52.028;8.916;2023-08-06T14:55:27;5.20;;;4.70;;
6842;SDS011;3460;52.028;8.916;2023-08-06T14:57:54;4.13;;;3.50;;
6842;SDS011;3460;52.028;8.916;2023-08-06T15:00:20;3.33;;;2.80;;
6842;SDS011;3460;52.028;8.916;2023-08-06T15:02:47;2.63;;;2.43;;
6842;SDS011;3460;52.028;8.916;2023-08-06T15:05:15;3.07;;;1.50;;
6842;SDS011;3460;52.028;8.916;2023-08-06T15:07:42;2.23;;;1.83;;
6842;SDS011;3460;52.028;8.916;2023-08-06T15:10:09;2.00;;;1.60;;
6842;SDS011;3460;52.028;8.916;2023-08-06T15:12:37;2.10;;;1.43;;
6842;SDS011;3460;52.028;8.916;2023-08-06T15:15:05;1.60;;;1.40;;
6842;SDS011;3460;52.028;8.916;2023-08-06T15:17:33;7.93;;;1.83;;